Time;durP1;ratioP1;P1;durP2;ratioP2;P2;SDS_P1;SDS_P2;PMS_P1;PMS_P2;Temp;Humidity;BMP_temperature;BMP_pressure;BME280_temperature;BME280_humidity;BME280_pressure;Samples;Min_cycle;Max_cycle;Signal;HPM_P1;HPM_P2
2022/08/07 00:00:32;;;;;;;5.35;4.35;;;12.50;99.90;;;;;;6185395;23;20021;-76
2022/08/07 00:02:58;;;;;;;5.22;3.65;;;12.30;99.90;;;;;;6185178;23;20326;-76
2022/08/07 00:05:25;;;;;;;3.45;3.13;;;12.20;99.90;;;;;;6160555;23;20101;-76
2022/08/07 00:07:52;;;;;;;5.47;3.30;;;12.10;99.90;;;;;;6161319;23;20009;-76
2022/08/07 00:10:17;;;;;;;5.50;3.85;;;11.90;99.90;;;;;;6185171;23;20150;-77
2022/08/07 00:12:43;;;;;;;5.10;3.83;;;11.80;99.90;;;;;;6136466;23;20452;-77
2022/08/07 00:15:10;;;;;;;5.68;4.03;;;11.80;99.90;;;;;;6134865;23;20055;-77
2022/08/07 00:17:35;;;;;;;4.68;3.70;;;11.80;99.90;;;;;;6160731;23;20017;-77
2022/08/07 00:20:02;;;;;;;5.50;4.03;;;11.80;99.90;;;;;;6185016;23;20012;-78
2022/08/07 00:22:28;;;;;;;5.70;4.50;;;11.90;99.90;;;;;;6136316;23;20063;-77
2022/08/07 00:24:54;;;;;;;5.85;4.38;;;12.00;99.90;;;;;;6135816;23;20013;-76
2022/08/07 00:27:20;;;;;;;4.75;3.97;;;12.00;99.90;;;;;;6111880;23;20040;-77
2022/08/07 00:29:45;;;;;;;4.38;3.80;;;12.20;99.90;;;;;;6136116;23;20016;-76
2022/08/07 00:32:12;;;;;;;6.35;3.92;;;12.20;99.90;;;;;;6135841;23;20047;-76
2022/08/07 00:34:39;;;;;;;7.00;4.50;;;12.20;99.90;;;;;;6159777;23;20024;-77
2022/08/07 00:37:05;;;;;;;5.55;4.40;;;12.10;99.90;;;;;;6185698;23;20369;-76
2022/08/07 00:39:32;;;;;;;5.93;4.80;;;12.10;99.90;;;;;;6161035;23;20013;-76
2022/08/07 00:41:58;;;;;;;7.00;5.28;;;12.10;99.90;;;;;;6136276;23;20079;-77
2022/08/07 00:44:25;;;;;;;6.82;5.22;;;12.10;99.90;;;;;;6185316;23;20581;-76
2022/08/07 00:46:51;;;;;;;9.07;6.93;;;12.20;99.90;;;;;;6162141;23;20011;-76
2022/08/07 00:49:17;;;;;;;8.35;5.53;;;12.20;99.90;;;;;;6136447;23;20013;-76
2022/08/07 00:51:43;;;;;;;7.57;4.95;;;12.20;99.90;;;;;;6187479;23;20380;-77
2022/08/07 00:54:10;;;;;;;8.85;5.93;;;12.20;99.90;;;;;;6162706;23;20020;-76
2022/08/07 00:56:36;;;;;;;7.30;5.82;;;12.20;99.90;;;;;;6162787;23;20016;-77
2022/08/07 00:59:02;;;;;;;7.88;5.72;;;12.20;99.90;;;;;;6163487;23;20096;-77
2022/08/07 01:01:28;;;;;;;6.95;5.72;;;12.20;99.90;;;;;;6162621;23;20342;-76
2022/08/07 01:03:54;;;;;;;5.40;4.60;;;12.10;99.90;;;;;;6186378;23;20381;-77
2022/08/07 01:06:20;;;;;;;5.07;4.10;;;12.00;99.90;;;;;;6162358;23;20442;-76
2022/08/07 01:08:46;;;;;;;5.13;4.63;;;11.80;99.90;;;;;;6187277;23;20051;-76
2022/08/07 01:11:13;;;;;;;8.82;5.03;;;11.70;99.90;;;;;;6162163;23;20089;-76
2022/08/07 01:13:40;;;;;;;8.10;6.03;;;11.70;99.90;;;;;;6138552;23;20017;-76
2022/08/07 01:16:07;;;;;;;7.32;5.47;;;11.80;99.90;;;;;;6161947;23;20083;-75
2022/08/07 01:18:35;;;;;;;5.72;5.03;;;11.90;99.90;;;;;;6186417;23;20434;-75
2022/08/07 01:21:12;;;;;;;7.50;6.45;;;12.00;99.90;;;;;;6162644;23;20017;-76
2022/08/07 01:23:41;;;;;;;9.50;6.40;;;12.10;99.90;;;;;;6162039;23;20075;-76
2022/08/07 01:26:08;;;;;;;8.40;6.10;;;12.20;99.90;;;;;;6161102;23;20008;-77
2022/08/07 01:28:35;;;;;;;7.93;6.18;;;12.40;99.90;;;;;;6159957;23;20091;-76
2022/08/07 01:31:01;;;;;;;7.72;6.03;;;12.60;99.90;;;;;;6187263;23;20017;-76
2022/08/07 01:33:28;;;;;;;6.53;5.70;;;12.60;99.90;;;;;;6160751;23;20058;-76
2022/08/07 01:35:55;;;;;;;8.05;6.03;;;12.70;99.90;;;;;;6162091;23;20078;-76
2022/08/07 01:38:22;;;;;;;7.32;6.43;;;12.70;99.90;;;;;;6186984;23;20012;-76
2022/08/07 01:40:48;;;;;;;9.38;6.20;;;12.70;99.90;;;;;;6162549;23;20055;-77
2022/08/07 01:43:14;;;;;;;7.72;5.90;;;12.80;99.90;;;;;;6186688;23;20389;-77
2022/08/07 01:45:41;;;;;;;8.85;6.63;;;12.90;99.90;;;;;;6137976;23;20017;-77
2022/08/07 01:48:07;;;;;;;7.85;6.28;;;12.90;99.90;;;;;;6135844;23;20008;-76
2022/08/07 01:50:36;;;;;;;9.43;7.10;;;12.90;99.90;;;;;;6160602;23;20337;-77
2022/08/07 01:53:04;;;;;;;10.32;6.57;;;12.90;99.90;;;;;;6187157;23;20020;-76
2022/08/07 01:55:36;;;;;;;9.50;6.97;;;12.90;99.90;;;;;;6186718;23;20020;-77
2022/08/07 01:58:08;;;;;;;10.27;6.93;;;12.90;99.90;;;;;;6186133;23;20020;-76
2022/08/07 02:00:36;;;;;;;8.43;6.65;;;13.00;99.90;;;;;;6162065;23;20095;-76
2022/08/07 02:03:13;;;;;;;9.02;7.18;;;13.00;99.90;;;;;;6186522;23;20015;-76
2022/08/07 02:05:44;;;;;;;11.20;7.53;;;13.00;99.90;;;;;;6185714;23;20019;-76
2022/08/07 02:08:13;;;;;;;10.52;7.18;;;13.00;99.90;;;;;;6185759;23;20023;-76
2022/08/07 02:10:40;;;;;;;8.40;6.97;;;13.10;99.90;;;;;;6160664;23;20476;-77
2022/08/07 02:13:07;;;;;;;10.13;6.93;;;13.10;99.90;;;;;;6162237;23;20024;-77
2022/08/07 02:15:36;;;;;;;9.30;7.20;;;13.30;99.90;;;;;;6135814;23;20107;-77
2022/08/07 02:18:03;;;;;;;9.20;7.05;;;13.20;99.90;;;;;;6185508;23;20023;-76
2022/08/07 02:20:30;;;;;;;9.27;6.63;;;13.20;99.90;;;;;;6135362;23;20095;-76
2022/08/07 02:23:00;;;;;;;10.05;7.25;;;13.30;99.90;;;;;;6161291;23;20031;-76
2022/08/07 02:25:29;;;;;;;13.90;7.70;;;13.30;99.90;;;;;;6161654;23;20020;-76
2022/08/07 02:27:57;;;;;;;13.93;7.60;;;13.30;99.90;;;;;;6186538;23;20067;-76
2022/08/07 02:30:24;;;;;;;10.55;7.25;;;13.20;99.90;;;;;;6160957;23;20012;-75
2022/08/07 02:32:51;;;;;;;11.07;7.75;;;13.30;99.90;;;;;;6160952;23;20048;-76
2022/08/07 02:35:18;;;;;;;9.43;7.18;;;13.30;99.90;;;;;;6186061;23;20020;-76
2022/08/07 02:37:45;;;;;;;10.90;7.75;;;13.20;99.90;;;;;;6161022;23;20020;-76
2022/08/07 02:40:12;;;;;;;13.82;7.53;;;13.30;99.90;;;;;;6185749;23;20017;-75
2022/08/07 02:42:39;;;;;;;8.70;7.00;;;13.20;99.90;;;;;;6161362;23;20147;-75
2022/08/07 02:45:09;;;;;;;8.88;6.70;;;13.20;99.90;;;;;;6161417;23;20449;-75
2022/08/07 02:47:35;;;;;;;10.05;7.18;;;13.20;99.90;;;;;;6136793;23;20044;-76
2022/08/07 02:50:01;;;;;;;11.98;6.78;;;13.10;99.90;;;;;;6135365;23;20083;-77
2022/08/07 02:52:40;;;;;;;7.50;6.03;;;13.10;99.90;;;;;;6184992;23;20055;-75
2022/08/07 02:55:12;;;;;;;7.00;5.65;;;13.00;99.90;;;;;;6185617;23;20048;-76
2022/08/07 02:57:40;;;;;;;8.95;5.50;;;12.90;99.90;;;;;;6185835;23;20024;-76
2022/08/07 03:00:07;;;;;;;6.68;5.28;;;12.80;99.90;;;;;;6111789;23;20017;-76
2022/08/07 03:02:35;;;;;;;5.60;4.95;;;12.70;99.90;;;;;;6185722;23;20063;-76
2022/08/07 03:05:02;;;;;;;6.75;5.03;;;12.70;99.90;;;;;;6191288;23;20009;-75
2022/08/07 03:07:29;;;;;;;7.82;5.40;;;12.60;99.90;;;;;;6165323;23;20012;-77
2022/08/07 03:09:55;;;;;;;6.70;5.13;;;12.60;99.90;;;;;;6164196;23;20084;-77
2022/08/07 03:12:21;;;;;;;7.13;5.55;;;12.50;99.90;;;;;;6161852;23;20048;-76
2022/08/07 03:14:48;;;;;;;7.15;5.72;;;12.40;99.90;;;;;;6162029;23;20012;-76
2022/08/07 03:17:15;;;;;;;6.68;5.50;;;12.50;99.90;;;;;;6138400;23;20413;-76
2022/08/07 03:19:41;;;;;;;8.63;5.88;;;12.40;99.90;;;;;;6187282;23;20035;-77
2022/08/07 03:22:07;;;;;;;10.85;6.30;;;12.50;99.90;;;;;;6164285;23;20017;-75
2022/08/07 03:24:33;;;;;;;6.95;5.68;;;12.50;99.90;;;;;;6188278;23;20012;-76
2022/08/07 03:27:02;;;;;;;9.10;6.57;;;12.40;99.90;;;;;;6140893;23;20017;-76
2022/08/07 03:29:39;;;;;;;9.02;6.72;;;12.40;99.90;;;;;;6187249;23;20024;-76
2022/08/07 03:32:08;;;;;;;7.15;5.95;;;12.50;99.90;;;;;;6186468;23;20091;-76
2022/08/07 03:34:36;;;;;;;9.43;6.13;;;12.50;99.90;;;;;;6185324;23;20013;-76
2022/08/07 03:37:03;;;;;;;7.53;5.30;;;12.40;99.90;;;;;;6185773;23;20016;-75
2022/08/07 03:39:32;;;;;;;8.40;5.50;;;12.40;99.90;;;;;;6135312;23;20074;-75
2022/08/07 03:41:58;;;;;;;6.68;5.78;;;12.40;99.90;;;;;;6160590;23;20092;-77
2022/08/07 03:44:24;;;;;;;7.63;5.32;;;12.20;99.90;;;;;;6159991;23;20016;-75
2022/08/07 03:46:50;;;;;;;7.53;4.72;;;12.00;99.90;;;;;;6160363;23;20008;-76
2022/08/07 03:49:16;;;;;;;5.85;5.13;;;11.60;99.90;;;;;;6135285;23;20016;-76
2022/08/07 03:51:42;;;;;;;6.32;5.03;;;11.30;99.90;;;;;;6184458;23;20016;-76
2022/08/07 03:54:08;;;;;;;7.35;5.32;;;11.30;99.90;;;;;;6135262;23;20021;-76
2022/08/07 03:56:36;;;;;;;8.27;4.70;;;11.20;99.90;;;;;;6160644;23;20021;-76
2022/08/07 03:59:04;;;;;;;7.22;5.40;;;11.10;99.90;;;;;;6184079;23;20032;-78
2022/08/07 04:01:32;;;;;;;6.85;5.35;;;11.10;99.90;;;;;;6160183;23;20044;-76
2022/08/07 04:03:59;;;;;;;8.15;5.80;;;11.10;99.90;;;;;;6159715;23;20088;-76
2022/08/07 04:06:32;;;;;;;6.60;5.25;;;11.10;99.90;;;;;;6183937;23;20074;-77
2022/08/07 04:08:59;;;;;;;6.95;5.13;;;11.10;99.90;;;;;;6184335;23;20354;-76
2022/08/07 04:11:25;;;;;;;7.93;5.70;;;11.20;99.90;;;;;;6159447;23;20118;-75
2022/08/07 04:13:52;;;;;;;8.05;5.53;;;11.30;99.90;;;;;;6159727;23;20024;-76
2022/08/07 04:16:18;;;;;;;7.65;6.20;;;11.30;99.90;;;;;;6135367;23;20019;-76
2022/08/07 04:18:45;;;;;;;9.43;6.05;;;11.50;99.90;;;;;;6159462;23;20376;-76
2022/08/07 04:21:11;;;;;;;10.40;6.90;;;11.70;99.90;;;;;;6160509;23;20013;-76
2022/08/07 04:23:37;;;;;;;9.05;6.93;;;11.80;99.90;;;;;;6184500;23;20017;-76
2022/08/07 04:26:05;;;;;;;9.60;6.60;;;12.00;99.90;;;;;;6184081;23;20023;-76
2022/08/07 04:28:31;;;;;;;11.45;7.38;;;12.00;99.90;;;;;;6184802;23;20525;-76
2022/08/07 04:30:56;;;;;;;10.57;6.82;;;12.10;99.90;;;;;;6185461;23;20063;-76
2022/08/07 04:33:24;;;;;;;7.05;5.80;;;12.20;99.90;;;;;;6159003;23;20027;-76
2022/08/07 04:35:50;;;;;;;7.40;5.30;;;12.20;99.90;;;;;;6135469;23;20091;-76
2022/08/07 04:38:16;;;;;;;8.50;6.10;;;12.20;99.90;;;;;;6159934;23;20052;-76
2022/08/07 04:40:43;;;;;;;8.43;5.55;;;12.20;99.90;;;;;;6134324;23;20096;-76
2022/08/07 04:43:10;;;;;;;8.18;5.97;;;12.20;99.90;;;;;;6158637;23;20012;-76
2022/08/07 04:46:00;;;;;;;7.50;5.65;;;12.30;99.90;;;;;;6184775;23;20009;-76
2022/08/07 04:49:02;;;;;;;7.75;6.13;;;12.40;99.90;;;;;;6158765;23;20635;-76
2022/08/07 04:51:56;;;;;;;8.93;5.55;;;12.50;99.90;;;;;;6159637;23;20114;-77
2022/08/07 04:54:43;;;;;;;6.73;5.20;;;12.60;99.90;;;;;;6184882;23;20370;-76
2022/08/07 04:57:43;;;;;;;6.38;5.32;;;12.60;99.90;;;;;;6160266;23;20031;-76
2022/08/07 05:00:17;;;;;;;7.13;5.47;;;12.70;99.90;;;;;;6160623;23;20374;-76
2022/08/07 05:02:46;;;;;;;7.65;5.40;;;12.70;99.90;;;;;;6184390;23;20016;-76
2022/08/07 05:05:14;;;;;;;6.38;5.13;;;12.70;99.90;;;;;;6185431;23;20013;-75
2022/08/07 05:07:51;;;;;;;7.15;5.18;;;12.70;99.90;;;;;;6159893;23;20013;-76
2022/08/07 05:10:31;;;;;;;6.10;5.25;;;12.70;99.90;;;;;;6160475;23;20314;-76
2022/08/07 05:13:05;;;;;;;8.68;5.55;;;12.70;99.90;;;;;;6159926;23;20517;-76
2022/08/07 05:15:39;;;;;;;5.82;4.95;;;12.70;99.90;;;;;;6184724;23;20083;-76
2022/08/07 05:18:19;;;;;;;6.25;5.10;;;12.70;99.90;;;;;;6184854;23;20035;-76
2022/08/07 05:20:48;;;;;;;6.70;5.32;;;12.70;99.90;;;;;;6159175;23;20048;-76
2022/08/07 05:23:19;;;;;;;9.85;5.38;;;12.80;99.90;;;;;;6159437;23;20454;-76
2022/08/07 05:25:47;;;;;;;7.82;5.07;;;12.80;99.90;;;;;;6183436;23;20398;-76
2022/08/07 05:28:14;;;;;;;6.70;5.10;;;12.80;99.90;;;;;;6134492;23;20013;-77
2022/08/07 05:30:41;;;;;;;9.38;5.38;;;12.80;99.90;;;;;;6160021;23;20434;-76
2022/08/07 05:33:08;;;;;;;6.85;5.38;;;12.80;99.90;;;;;;6137066;23;20067;-76
2022/08/07 05:35:35;;;;;;;6.45;5.20;;;12.90;99.90;;;;;;6161979;23;20399;-76
2022/08/07 05:38:05;;;;;;;6.90;5.35;;;13.00;99.90;;;;;;6159285;23;20055;-76
2022/08/07 05:40:32;;;;;;;7.03;5.18;;;13.00;99.90;;;;;;6161783;23;20092;-76
2022/08/07 05:42:59;;;;;;;7.68;5.45;;;13.10;99.90;;;;;;6139130;23;20009;-77
2022/08/07 05:45:26;;;;;;;7.95;5.10;;;13.30;99.90;;;;;;6162855;23;20095;-77
2022/08/07 05:47:53;;;;;;;8.00;5.60;;;13.30;99.90;;;;;;6162609;23;20016;-77
2022/08/07 05:50:20;;;;;;;8.35;5.78;;;13.50;99.90;;;;;;6187079;23;20020;-77
2022/08/07 05:52:46;;;;;;;9.50;6.10;;;13.50;99.90;;;;;;6161230;23;20114;-76
2022/08/07 05:55:11;;;;;;;9.70;6.65;;;13.50;99.90;;;;;;6163505;23;20013;-77
2022/08/07 05:57:40;;;;;;;9.00;6.40;;;13.70;99.90;;;;;;6161861;23;20062;-78
2022/08/07 06:00:07;;;;;;;10.95;6.80;;;13.70;99.90;;;;;;6162215;23;20492;-76
2022/08/07 06:02:35;;;;;;;8.60;6.30;;;13.70;99.90;;;;;;6112566;23;20369;-76
2022/08/07 06:05:11;;;;;;;7.38;6.18;;;13.70;99.90;;;;;;6162945;23;20105;-76
2022/08/07 06:07:38;;;;;;;6.65;5.10;;;13.70;99.90;;;;;;6161950;23;20096;-76
2022/08/07 06:10:05;;;;;;;11.35;5.00;;;13.80;99.90;;;;;;6163432;23;20020;-76
2022/08/07 06:12:30;;;;;;;9.52;5.43;;;13.80;99.90;;;;;;6162787;23;20012;-76
2022/08/07 06:14:57;;;;;;;7.65;5.18;;;13.90;99.90;;;;;;6162177;23;20039;-76
2022/08/07 06:17:23;;;;;;;6.07;4.78;;;13.90;99.90;;;;;;6138102;23;20019;-77
2022/08/07 06:19:50;;;;;;;6.10;4.82;;;13.90;99.90;;;;;;6137481;23;20054;-77
2022/08/07 06:22:18;;;;;;;8.27;5.00;;;14.00;99.90;;;;;;6137642;23;20093;-77
2022/08/07 06:24:45;;;;;;;5.75;4.43;;;14.10;99.90;;;;;;6162309;23;20088;-77
2022/08/07 06:27:20;;;;;;;6.68;4.63;;;14.10;99.90;;;;;;6138368;23;20084;-78
2022/08/07 06:29:45;;;;;;;6.65;4.40;;;14.20;99.90;;;;;;6137348;23;20013;-78
2022/08/07 06:32:11;;;;;;;6.78;5.25;;;14.30;99.90;;;;;;6137030;23;20058;-78
2022/08/07 06:34:37;;;;;;;5.75;4.78;;;14.30;99.90;;;;;;6137017;23;20078;-77
2022/08/07 06:37:03;;;;;;;6.10;4.78;;;14.40;99.90;;;;;;6162169;23;20047;-78
2022/08/07 06:39:28;;;;;;;6.47;4.60;;;14.50;99.90;;;;;;6162440;23;20501;-77
2022/08/07 06:42:02;;;;;;;6.90;4.88;;;14.60;99.90;;;;;;6137861;23;20019;-77
2022/08/07 06:44:29;;;;;;;6.97;5.13;;;14.70;99.90;;;;;;6186638;23;20009;-77
2022/08/07 06:46:55;;;;;;;6.80;4.78;;;14.80;99.90;;;;;;6186890;23;20056;-77
2022/08/07 06:49:20;;;;;;;7.00;4.40;;;15.00;99.90;;;;;;6161222;23;20295;-78
2022/08/07 06:51:47;;;;;;;5.22;4.25;;;15.10;99.90;;;;;;6160629;23;20016;-77
2022/08/07 06:54:16;;;;;;;6.55;4.43;;;15.20;99.90;;;;;;6161322;23;20020;-77
2022/08/07 06:56:45;;;;;;;6.20;4.13;;;15.40;99.90;;;;;;6187037;23;20012;-78
2022/08/07 06:59:40;;;;;;;6.35;4.45;;;15.50;99.90;;;;;;6161141;23;20013;-77
2022/08/07 07:02:15;;;;;;;4.20;3.58;;;15.50;99.90;;;;;;6180126;23;20092;-78
2022/08/07 07:04:45;;;;;;;4.57;3.78;;;15.60;99.90;;;;;;6185913;23;20074;-77
2022/08/07 07:07:11;;;;;;;4.93;4.00;;;15.80;99.90;;;;;;6137356;23;20016;-78
2022/08/07 07:09:47;;;;;;;6.53;3.67;;;15.80;99.90;;;;;;6113213;23;20338;-78
2022/08/07 07:12:22;;;;;;;4.60;3.35;;;15.80;99.90;;;;;;6186884;23;20062;-78
2022/08/07 07:15:04;;;;;;;3.88;3.38;;;15.90;99.90;;;;;;6162264;23;20405;-79
2022/08/07 07:17:43;;;;;;;3.75;3.13;;;16.00;99.90;;;;;;6162511;23;20016;-78
2022/08/07 07:20:22;;;;;;;5.97;3.03;;;16.20;99.90;;;;;;6162176;23;20501;-77
2022/08/07 07:22:49;;;;;;;3.70;2.80;;;16.20;99.90;;;;;;6161782;23;20019;-77
2022/08/07 07:25:17;;;;;;;4.03;2.63;;;16.20;99.90;;;;;;6188734;23;20076;-77
2022/08/07 07:28:11;;;;;;;3.42;2.90;;;16.30;99.90;;;;;;6183346;23;20017;-76
2022/08/07 07:30:43;;;;;;;4.93;3.08;;;16.50;99.90;;;;;;6142225;23;20387;-78
2022/08/07 07:33:12;;;;;;;5.00;2.75;;;16.60;99.90;;;;;;6187397;23;20074;-78
2022/08/07 07:35:42;;;;;;;3.92;3.03;;;16.60;99.90;;;;;;6161076;23;20052;-78
2022/08/07 07:38:10;;;;;;;3.45;2.47;;;16.60;99.90;;;;;;6162917;23;20012;-77
2022/08/07 07:40:38;;;;;;;4.50;3.13;;;16.70;99.90;;;;;;6161574;23;20099;-77
2022/08/07 07:43:05;;;;;;;3.65;3.28;;;16.80;99.90;;;;;;6160918;23;20649;-77
2022/08/07 07:45:31;;;;;;;3.63;3.25;;;16.90;99.90;;;;;;6137356;23;20062;-77
2022/08/07 07:47:59;;;;;;;4.30;2.85;;;16.90;99.90;;;;;;6186632;23;20438;-78
2022/08/07 07:50:26;;;;;;;5.38;3.20;;;17.00;99.90;;;;;;6184691;23;20620;-78
2022/08/07 07:52:55;;;;;;;4.25;3.05;;;17.10;99.90;;;;;;6161722;23;20095;-77
2022/08/07 07:55:21;;;;;;;4.20;3.38;;;17.10;99.90;;;;;;6161559;23;20419;-77
2022/08/07 07:58:06;;;;;;;3.72;3.15;;;17.10;99.90;;;;;;6136162;23;20024;-78
2022/08/07 08:00:33;;;;;;;4.05;3.30;;;17.20;99.90;;;;;;6161951;23;20020;-78
2022/08/07 08:03:06;;;;;;;3.72;3.05;;;17.40;99.90;;;;;;6159485;23;20334;-78
2022/08/07 08:05:35;;;;;;;3.92;3.55;;;17.40;99.90;;;;;;6160890;23;20027;-78
2022/08/07 08:08:20;;;;;;;;;;;;;;;;;;;;;
2022/08/07 08:10:55;;;;;;;4.68;3.60;;;17.50;99.90;;;;;;6185989;23;20020;-79
2022/08/07 08:13:23;;;;;;;4.57;3.35;;;17.50;99.90;;;;;;6137562;23;20013;-77
2022/08/07 08:15:49;;;;;;;4.32;3.25;;;17.60;99.90;;;;;;6184866;23;20375;-78
2022/08/07 08:18:26;;;;;;;7.10;4.35;;;17.70;99.90;;;;;;6161358;23;20013;-79
2022/08/07 08:21:00;;;;;;;5.95;3.50;;;17.60;99.90;;;;;;6160584;23;20346;-77
2022/08/07 08:29:15;;;;;;;8.32;3.67;;;17.80;99.90;;;;;;6164834;23;20346;-76
2022/08/07 08:31:41;;;;;;;5.80;3.67;;;18.00;99.90;;;;;;6161032;23;20377;-77
2022/08/07 08:34:08;;;;;;;4.35;3.63;;;18.00;99.90;;;;;;6161239;23;20055;-77
2022/08/07 08:36:35;;;;;;;6.10;3.42;;;17.90;99.90;;;;;;6184339;23;20017;-77
2022/08/07 08:39:03;;;;;;;3.55;3.05;;;17.80;99.90;;;;;;6159555;23;20016;-77
2022/08/07 08:41:49;;;;;;;6.03;3.42;;;17.90;99.90;;;;;;6161047;23;20098;-77
2022/08/07 08:44:27;;;;;;;3.33;3.00;;;17.90;99.90;;;;;;6160562;23;20143;-77
2022/08/07 08:47:20;;;;;;;3.38;2.97;;;17.90;99.90;;;;;;6183617;23;20689;-77
2022/08/07 08:50:10;;;;;;;3.95;2.92;;;17.90;99.90;;;;;;6185307;23;20400;-75
2022/08/07 08:52:41;;;;;;;3.35;2.70;;;18.30;99.90;;;;;;6184383;23;20091;-75
2022/08/07 08:55:29;;;;;;;3.20;2.90;;;18.50;99.90;;;;;;6185678;23;20349;-74
2022/08/07 08:58:09;;;;;;;3.30;3.00;;;18.50;99.90;;;;;;6183794;23;20021;-74
2022/08/07 09:00:42;;;;;;;3.83;3.30;;;18.30;99.90;;;;;;6160257;23;20013;-74
2022/08/07 09:03:38;;;;;;;4.25;3.05;;;18.40;99.90;;;;;;6185103;23;20087;-75
2022/08/07 09:06:21;;;;;;;3.75;3.08;;;18.70;99.90;;;;;;6149312;23;20017;-74
2022/08/07 09:09:36;;;;;;;4.10;3.03;;;18.70;99.90;;;;;;6186804;23;20043;-74
2022/08/07 09:12:39;;;;;;;3.05;2.75;;;18.60;99.90;;;;;;6140316;23;20013;-74
2022/08/07 09:15:16;;;;;;;3.10;2.80;;;18.60;99.90;;;;;;6187860;23;20012;-74
2022/08/07 09:18:09;;;;;;;3.20;2.90;;;18.50;99.90;;;;;;6185300;23;20083;-74
2022/08/07 09:20:49;;;;;;;4.75;3.22;;;18.70;99.90;;;;;;6162700;23;20132;-75
2022/08/07 09:23:43;;;;;;;4.63;3.38;;;19.10;99.90;;;;;;6161975;23;20103;-74
2022/08/07 09:26:12;;;;;;;4.28;3.13;;;19.10;99.90;;;;;;6186727;23;20055;-74
2022/08/07 09:28:40;;;;;;;5.10;3.35;;;19.10;99.90;;;;;;6185638;23;20122;-75
2022/08/07 09:31:31;;;;;;;3.90;2.92;;;19.70;99.90;;;;;;6160893;23;20380;-75
2022/08/07 09:34:15;;;;;;;3.40;2.75;;;19.40;99.90;;;;;;6185755;23;20107;-75
2022/08/07 09:36:54;;;;;;;2.95;2.53;;;19.60;99.90;;;;;;6161852;23;20044;-75
2022/08/07 09:40:03;;;;;;;3.28;2.65;;;20.10;99.90;;;;;;6185522;23;20024;-75
2022/08/07 09:42:44;;;;;;;4.43;2.67;;;20.40;99.90;;;;;;6062995;23;20038;-75
2022/08/07 09:45:29;;;;;;;2.95;2.53;;;20.90;99.90;;;;;;6154457;23;20367;-75
2022/08/07 09:48:23;;;;;;;3.03;2.35;;;21.50;99.90;;;;;;6160459;23;20055;-74
2022/08/07 09:51:03;;;;;;;2.95;2.65;;;21.60;99.90;;;;;;6186948;23;20402;-76
2022/08/07 09:53:37;;;;;;;4.00;2.70;;;21.70;99.90;;;;;;6161515;23;20020;-75
2022/08/07 09:56:27;;;;;;;3.53;2.80;;;21.50;99.90;;;;;;6186697;23;20019;-75
2022/08/07 09:59:01;;;;;;;3.08;2.65;;;22.30;99.90;;;;;;6160883;23;20020;-75
2022/08/07 10:01:55;;;;;;;3.05;2.42;;;22.50;99.90;;;;;;6161841;23;20064;-75
2022/08/07 10:04:32;;;;;;;6.53;2.80;;;22.60;99.90;;;;;;6162299;23;20059;-76
2022/08/07 10:07:18;;;;;;;4.00;2.53;;;22.80;99.90;;;;;;6185617;23;20337;-75
2022/08/07 10:10:05;;;;;;;3.20;2.72;;;22.50;99.90;;;;;;6157880;23;20095;-75
2022/08/07 10:12:37;;;;;;;2.85;2.55;;;23.30;99.90;;;;;;6163109;23;20020;-75
2022/08/07 10:15:08;;;;;;;4.35;2.50;;;23.40;99.90;;;;;;6162915;23;20013;-76
2022/08/07 10:18:06;;;;;;;2.78;2.40;;;23.40;99.90;;;;;;6162475;23;20023;-76
2022/08/07 10:20:56;;;;;;;3.72;2.60;;;23.40;99.90;;;;;;6185419;23;20012;-76
2022/08/07 10:23:28;;;;;;;3.13;2.75;;;23.20;99.90;;;;;;6162467;23;20020;-75
2022/08/07 10:26:25;;;;;;;2.97;2.35;;;23.60;99.90;;;;;;6186512;23;20013;-75
2022/08/07 10:28:57;;;;;;;4.45;2.58;;;23.10;99.90;;;;;;6187382;23;20009;-76
2022/08/07 10:31:31;;;;;;;2.38;2.17;;;23.60;99.90;;;;;;6187548;23;20017;-75
2022/08/07 10:34:25;;;;;;;2.70;2.50;;;23.40;98.60;;;;;;6162655;23;20135;-76
2022/08/07 10:37:22;;;;;;;2.70;2.43;;;23.00;85.60;;;;;;6187662;23;20017;-76
2022/08/07 10:40:01;;;;;;;3.55;2.63;;;22.70;81.50;;;;;;6185178;23;20528;-75
2022/08/07 10:42:52;;;;;;;2.90;2.60;;;23.40;99.80;;;;;;6185814;23;20120;-76
2022/08/07 10:45:34;;;;;;;4.20;2.53;;;23.60;99.90;;;;;;6161908;23;20444;-76
2022/08/07 10:48:21;;;;;;;2.50;2.30;;;24.00;85.20;;;;;;6162032;23;20012;-78
2022/08/07 10:50:58;;;;;;;2.38;2.13;;;24.20;95.00;;;;;;6160988;23;20021;-78
2022/08/07 10:53:49;;;;;;;2.03;1.83;;;24.30;91.60;;;;;;6185931;23;20020;-78
2022/08/07 10:56:21;;;;;;;2.35;2.05;;;24.20;78.30;;;;;;6185983;23;20021;-79
2022/08/07 10:58:56;;;;;;;4.28;2.22;;;24.30;83.40;;;;;;6161102;23;20020;-79
2022/08/07 11:01:48;;;;;;;3.10;2.60;;;24.30;80.00;;;;;;6161675;23;20052;-78
2022/08/07 11:04:46;;;;;;;2.90;2.17;;;24.20;39.70;;;;;;6186100;23;20017;-76
2022/08/07 11:07:41;;;;;;;2.75;2.08;;;24.50;67.90;;;;;;6159952;23;20043;-77
2022/08/07 11:10:28;;;;;;;2.30;2.10;;;24.30;32.30;;;;;;6160810;23;20009;-78
2022/08/07 11:13:00;;;;;;;2.67;2.15;;;24.00;14.20;;;;;;6158916;23;20068;-77
2022/08/07 11:15:30;;;;;;;2.50;2.08;;;23.70;41.10;;;;;;6162302;23;20013;-78
2022/08/07 11:18:12;;;;;;;3.92;2.30;;;24.30;46.10;;;;;;6185693;23;20016;-78
2022/08/07 11:20:51;;;;;;;2.58;2.15;;;23.80;15.20;;;;;;6161285;23;20430;-78
2022/08/07 11:23:43;;;;;;;2.55;2.20;;;24.20;25.90;;;;;;6185396;23;20071;-78
2022/08/07 11:26:22;;;;;;;3.38;1.90;;;24.00;6.70;;;;;;6160048;23;20019;-77
2022/08/07 11:29:01;;;;;;;2.38;2.00;;;23.90;8.00;;;;;;6185803;23;20051;-78
2022/08/07 11:31:38;;;;;;;2.38;2.00;;;24.40;21.40;;;;;;6185718;23;20027;-78
2022/08/07 11:34:15;;;;;;;2.30;1.85;;;24.80;21.10;;;;;;6161448;23;20020;-78
2022/08/07 11:36:49;;;;;;;2.20;1.73;;;24.80;7.10;;;;;;6161581;23;20048;-77
2022/08/07 11:39:41;;;;;;;3.42;2.10;;;24.50;10.10;;;;;;6160716;23;20107;-79
2022/08/07 11:42:10;;;;;;;2.70;2.00;;;24.70;1.00;;;;;;6183512;23;20017;-77
2022/08/07 11:45:18;;;;;;;2.97;2.20;;;25.10;8.20;;;;;;6186339;23;20009;-77
2022/08/07 11:48:15;;;;;;;2.25;2.00;;;25.60;1.00;;;;;;6184040;23;20020;-78
2022/08/07 11:50:58;;;;;;;2.20;1.80;;;25.10;1.00;;;;;;6185321;23;20337;-78
2022/08/07 11:53:56;;;;;;;2.03;1.70;;;25.50;1.00;;;;;;6161427;23;20019;-77
2022/08/07 11:56:21;;;;;;;2.20;1.70;;;25.50;1.00;;;;;;6160618;23;20012;-77
2022/08/07 11:59:35;;;;;;;1.98;1.60;;;25.50;1.00;;;;;;6161152;23;20465;-78
2022/08/07 12:02:32;;;;;;;1.80;1.63;;;26.00;1.00;;;;;;6128810;23;20013;-77
2022/08/07 12:05:15;;;;;;;2.35;1.90;;;25.80;1.00;;;;;;6160719;23;20075;-77
2022/08/07 12:08:09;;;;;;;2.10;1.87;;;25.90;1.00;;;;;;6185780;23;20009;-77
2022/08/07 12:10:47;;;;;;;3.08;2.00;;;25.50;1.00;;;;;;6159102;23;20016;-77
2022/08/07 12:13:30;;;;;;;2.00;1.80;;;25.50;1.00;;;;;;6184677;23;20013;-78
2022/08/07 12:16:16;;;;;;;3.00;1.95;;;24.70;1.00;;;;;;6161128;23;20014;-76
2022/08/07 12:19:11;;;;;;;1.80;1.70;;;24.80;1.00;;;;;;6186109;23;20009;-78
2022/08/07 12:22:01;;;;;;;2.40;2.20;;;25.00;1.00;;;;;;6160859;23;20487;-76
2022/08/07 12:24:35;;;;;;;2.58;1.90;;;24.20;1.00;;;;;;6185783;23;20068;-76
2022/08/07 12:27:10;;;;;;;2.20;2.00;;;23.70;9.00;;;;;;6160685;23;20358;-76
2022/08/07 12:29:52;;;;;;;2.40;1.95;;;23.60;21.20;;;;;;6161143;23;20020;-76
2022/08/07 12:33:06;;;;;;;2.25;1.73;;;23.40;15.00;;;;;;6159083;23;20017;-76
2022/08/07 12:35:33;;;;;;;5.90;2.13;;;24.00;2.80;;;;;;6094388;23;20020;-77
2022/08/07 12:38:00;;;;;;;1.98;1.70;;;23.90;27.90;;;;;;6161103;23;20314;-77
2022/08/07 12:40:33;;;;;;;2.30;1.90;;;24.10;26.70;;;;;;6160228;23;20016;-78
2022/08/07 12:43:02;;;;;;;2.00;1.80;;;24.90;9.50;;;;;;6185786;23;20099;-77
2022/08/07 12:45:44;;;;;;;3.65;2.00;;;25.00;17.70;;;;;;6160809;23;20055;-77
2022/08/07 12:48:30;;;;;;;2.55;1.88;;;25.50;6.30;;;;;;6160367;23;20059;-78
2022/08/07 12:51:07;;;;;;;1.73;1.63;;;24.60;10.50;;;;;;6087418;23;20024;-79
2022/08/07 12:53:40;;;;;;;1.90;1.75;;;25.10;3.40;;;;;;6161026;23;20020;-78
2022/08/07 12:56:48;;;;;;;2.75;1.75;;;24.80;11.90;;;;;;6160556;23;20013;-77
2022/08/07 12:59:21;;;;;;;2.60;1.95;;;24.10;1.00;;;;;;6104336;23;20020;-78
2022/08/07 13:02:26;;;;;;;2.47;2.13;;;23.60;7.30;;;;;;6185341;23;20489;-76
2022/08/07 13:05:23;;;;;;;2.40;2.20;;;23.10;54.70;;;;;;6111505;23;20350;-76
2022/08/07 13:08:24;;;;;;;2.65;2.05;;;22.50;77.10;;;;;;6160835;23;20013;-77
2022/08/07 13:11:08;;;;;;;2.63;2.00;;;22.10;92.30;;;;;;6186064;23;20020;-76
2022/08/07 13:13:56;;;;;;;4.25;2.22;;;22.10;93.50;;;;;;6185810;23;20017;-76
2022/08/07 13:16:31;;;;;;;7.05;2.00;;;21.90;97.20;;;;;;6184692;23;20408;-75
2022/08/07 13:19:07;;;;;;;3.03;2.50;;;21.80;99.10;;;;;;6184664;23;20527;-75
2022/08/07 13:21:41;;;;;;;2.58;2.13;;;21.80;99.80;;;;;;6184869;23;20017;-75
2022/08/07 13:24:23;;;;;;;2.70;1.95;;;22.10;97.80;;;;;;6182442;23;20013;-76
2022/08/07 13:27:13;;;;;;;4.03;2.28;;;22.70;97.30;;;;;;6160018;23;20044;-75
2022/08/07 13:30:12;;;;;;;2.58;2.20;;;22.80;93.80;;;;;;6159852;23;20008;-75